createdAt,value
2022-10-10T00:01:20.368Z,18.65
2022-10-10T00:03:47.975Z,21.00
2022-10-10T00:06:16.276Z,19.23
2022-10-10T00:08:44.648Z,21.52
2022-10-10T00:11:12.723Z,14.43
2022-10-10T00:13:40.794Z,18.42
2022-10-10T00:16:10.815Z,13.82
2022-10-10T00:18:41.761Z,16.23
2022-10-10T00:21:11.744Z,16.08
2022-10-10T00:23:41.658Z,17.38
2022-10-10T00:26:09.800Z,14.32
2022-10-10T00:28:38.664Z,17.67
2022-10-10T00:31:11.612Z,12.70
2022-10-10T00:33:41.413Z,11.80
2022-10-10T00:36:08.526Z,12.50
2022-10-10T00:38:38.608Z,10.50
2022-10-10T00:41:08.628Z,15.02
2022-10-10T00:43:38.794Z,14.48
2022-10-10T00:46:12.094Z,12.70
2022-10-10T00:48:44.439Z,12.88
2022-10-10T00:51:15.318Z,16.33
2022-10-10T00:53:49.300Z,16.48
2022-10-10T00:56:25.498Z,15.27
2022-10-10T00:58:55.450Z,14.68
2022-10-10T01:01:23.061Z,16.25
2022-10-10T01:03:50.453Z,19.05
2022-10-10T01:06:17.550Z,18.27
2022-10-10T01:08:46.657Z,18.67
2022-10-10T01:11:22.171Z,18.17
2022-10-10T01:14:21.291Z,21.50
2022-10-10T01:17:12.633Z,20.17
2022-10-10T01:20:01.771Z,22.40
2022-10-10T01:22:59.278Z,21.60
2022-10-10T01:25:30.048Z,22.92
2022-10-10T01:28:03.373Z,14.90
2022-10-10T01:30:35.218Z,16.30
2022-10-10T01:33:19.733Z,13.93
2022-10-10T01:35:53.375Z,13.23
2022-10-10T01:38:42.406Z,18.90
2022-10-10T01:41:17.288Z,15.75
2022-10-10T01:43:52.451Z,13.85
2022-10-10T01:46:19.984Z,14.35
2022-10-10T01:48:52.351Z,13.05
2022-10-10T01:51:43.451Z,10.27
2022-10-10T01:54:52.357Z,9.77
2022-10-10T01:57:25.787Z,13.32
2022-10-10T02:00:05.529Z,13.65
2022-10-10T02:02:36.010Z,13.45
2022-10-10T02:05:42.941Z,11.80
2022-10-10T02:08:36.264Z,12.88
2022-10-10T02:11:09.553Z,12.50
2022-10-10T02:13:43.774Z,10.52
2022-10-10T02:16:21.713Z,11.85
2022-10-10T02:18:54.288Z,12.00
2022-10-10T02:21:23.517Z,14.40
2022-10-10T02:23:54.082Z,14.50
2022-10-10T02:26:26.501Z,13.35
2022-10-10T02:28:56.676Z,10.38
2022-10-10T02:31:39.101Z,14.25
2022-10-10T02:34:19.529Z,8.85
2022-10-10T02:36:52.288Z,11.20
2022-10-10T02:39:27.350Z,11.23
2022-10-10T02:41:57.348Z,9.13
2022-10-10T02:44:25.966Z,10.57
2022-10-10T02:46:53.290Z,8.50
2022-10-10T02:49:26.659Z,9.43
2022-10-10T02:51:57.005Z,8.38
2022-10-10T02:54:25.595Z,8.52
2022-10-10T02:56:55.297Z,6.03
2022-10-10T02:59:22.914Z,8.63
2022-10-10T03:01:50.327Z,9.32
2022-10-10T03:04:17.742Z,16.42
2022-10-10T03:06:44.904Z,20.33
2022-10-10T03:09:12.178Z,14.27
2022-10-10T03:11:41.882Z,14.43
2022-10-10T03:14:09.141Z,18.00
2022-10-10T03:16:36.226Z,19.15
2022-10-10T03:19:03.827Z,15.25
2022-10-10T03:21:34.012Z,23.30
2022-10-10T03:24:01.043Z,17.17
2022-10-10T03:26:28.786Z,15.38
2022-10-10T03:28:55.840Z,16.20
2022-10-10T03:31:23.380Z,17.58
2022-10-10T03:33:50.636Z,20.15
2022-10-10T03:36:18.022Z,16.77
2022-10-10T03:38:47.503Z,19.65
2022-10-10T03:41:17.215Z,16.63
2022-10-10T03:43:44.221Z,11.73
2022-10-10T03:46:16.086Z,19.00
2022-10-10T03:48:43.910Z,10.88
2022-10-10T03:51:11.143Z,16.33
2022-10-10T03:53:38.718Z,16.30
2022-10-10T03:56:08.649Z,17.80
2022-10-10T03:58:35.786Z,15.38
2022-10-10T04:01:06.029Z,10.48
2022-10-10T04:03:33.661Z,17.92
2022-10-10T04:06:01.212Z,13.73
2022-10-10T04:08:28.572Z,14.30
2022-10-10T04:10:56.194Z,10.55
2022-10-10T04:13:26.527Z,13.98
2022-10-10T04:15:56.999Z,22.30
2022-10-10T04:18:26.678Z,20.20
2022-10-10T04:20:54.027Z,17.17
2022-10-10T04:23:23.692Z,18.10
2022-10-10T04:25:54.254Z,14.43
2022-10-10T04:28:21.530Z,13.40
2022-10-10T04:30:48.986Z,15.25
2022-10-10T04:33:16.194Z,16.15
2022-10-10T04:35:43.434Z,16.10
2022-10-10T04:38:12.748Z,17.83
2022-10-10T04:40:40.552Z,20.65
2022-10-10T04:43:08.470Z,17.65
2022-10-10T04:45:37.695Z,14.50
2022-10-10T04:48:07.661Z,18.23
2022-10-10T04:50:37.361Z,13.73
2022-10-10T04:53:04.476Z,9.75
2022-10-10T04:55:31.976Z,14.32
2022-10-10T04:57:59.028Z,8.93
2022-10-10T05:00:27.243Z,8.65
2022-10-10T05:02:54.767Z,8.57
2022-10-10T05:05:22.379Z,7.38
2022-10-10T05:07:54.457Z,10.20
2022-10-10T05:10:25.839Z,9.23
2022-10-10T05:12:53.621Z,7.32
2022-10-10T05:15:21.408Z,10.30
2022-10-10T05:17:50.820Z,7.78
2022-10-10T05:20:18.075Z,11.68
2022-10-10T05:22:45.347Z,9.05
2022-10-10T05:25:12.999Z,9.30
2022-10-10T05:27:39.974Z,10.20
2022-10-10T05:30:07.811Z,8.52
2022-10-10T05:32:35.151Z,15.07
2022-10-10T05:35:02.426Z,10.15
2022-10-10T05:37:29.675Z,7.75
2022-10-10T05:39:57.236Z,6.70
2022-10-10T05:42:26.726Z,6.65
2022-10-10T05:44:56.641Z,6.13
2022-10-10T05:47:27.546Z,8.32
2022-10-10T05:49:55.310Z,12.07
2022-10-10T05:52:24.552Z,10.27
2022-10-10T05:54:52.704Z,10.00
2022-10-10T05:57:19.755Z,8.20
2022-10-10T05:59:49.510Z,12.45
2022-10-10T06:02:17.063Z,12.40
2022-10-10T06:04:44.265Z,12.95
2022-10-10T06:07:11.615Z,14.50
2022-10-10T06:09:41.120Z,13.00
2022-10-10T06:12:08.188Z,10.52
2022-10-10T06:14:35.542Z,8.02
2022-10-10T06:17:05.278Z,11.13
2022-10-10T06:19:32.562Z,9.25
2022-10-10T06:22:02.742Z,14.32
2022-10-10T06:24:30.120Z,11.02
2022-10-10T06:26:57.086Z,7.63
2022-10-10T06:29:24.642Z,8.55
2022-10-10T06:31:51.869Z,8.65
2022-10-10T06:34:22.009Z,9.95
2022-10-10T06:36:50.383Z,9.40
2022-10-10T06:39:18.827Z,13.68
2022-10-10T06:41:45.960Z,12.45
2022-10-10T06:44:13.273Z,10.65
2022-10-10T06:46:40.465Z,11.07
2022-10-10T06:49:10.179Z,11.18
2022-10-10T06:51:37.294Z,10.65
2022-10-10T06:54:07.404Z,10.82
2022-10-10T06:56:34.551Z,8.82
2022-10-10T06:59:06.486Z,8.85
2022-10-10T07:01:33.705Z,8.25
2022-10-10T07:04:05.563Z,9.40
2022-10-10T07:06:35.196Z,8.32
2022-10-10T07:09:02.769Z,9.63
2022-10-10T07:11:30.300Z,8.10
2022-10-10T07:13:58.286Z,8.55
2022-10-10T07:16:25.384Z,10.77
2022-10-10T07:18:57.927Z,8.25
2022-10-10T07:21:25.067Z,8.83
2022-10-10T07:23:55.006Z,10.18
2022-10-10T07:26:22.208Z,10.10
2022-10-10T07:28:51.631Z,10.43
2022-10-10T07:31:19.030Z,10.50
2022-10-10T07:33:50.404Z,11.07
2022-10-10T07:36:19.153Z,8.50
2022-10-10T07:38:50.523Z,10.32
2022-10-10T07:41:18.212Z,11.35
2022-10-10T07:43:48.104Z,11.77
2022-10-10T07:46:19.990Z,9.43
2022-10-10T07:48:50.261Z,10.07
2022-10-10T07:51:17.684Z,10.15
2022-10-10T07:53:47.376Z,11.85
2022-10-10T07:56:14.395Z,10.43
2022-10-10T07:58:41.907Z,11.43
2022-10-10T08:01:12.663Z,12.82
2022-10-10T08:03:42.870Z,10.52
2022-10-10T08:06:14.427Z,9.40
2022-10-10T08:08:50.299Z,11.02
2022-10-10T08:11:18.797Z,8.15
2022-10-10T08:13:46.153Z,10.10
2022-10-10T08:16:13.166Z,10.98
2022-10-10T08:18:40.590Z,10.52
2022-10-10T08:21:10.361Z,8.55
2022-10-10T08:23:40.235Z,11.35
2022-10-10T08:26:10.837Z,9.82
2022-10-10T08:28:41.696Z,7.32
2022-10-10T08:31:14.899Z,7.88
2022-10-10T08:33:43.723Z,8.30
2022-10-10T08:36:20.784Z,10.15
2022-10-10T08:38:48.344Z,7.60
2022-10-10T08:41:32.753Z,8.05
2022-10-10T08:44:37.555Z,7.53
2022-10-10T08:47:05.119Z,8.20
2022-10-10T08:49:57.592Z,8.32
2022-10-10T08:52:39.517Z,10.25
2022-10-10T08:55:14.636Z,9.10
2022-10-10T08:57:50.735Z,8.20
2022-10-10T09:00:23.778Z,9.57
2022-10-10T09:02:57.424Z,8.18
2022-10-10T09:05:40.110Z,10.25
2022-10-10T09:08:40.614Z,9.23
2022-10-10T09:11:26.551Z,8.52
2022-10-10T09:14:19.717Z,7.30
2022-10-10T09:17:12.319Z,10.70
2022-10-10T09:20:10.451Z,7.70
2022-10-10T09:22:56.121Z,8.18
2022-10-10T09:25:47.389Z,8.48
2022-10-10T09:28:29.730Z,8.70
2022-10-10T09:31:01.065Z,5.88
2022-10-10T09:33:40.562Z,8.43
2022-10-10T09:36:13.999Z,8.18
2022-10-10T09:39:22.484Z,9.98
2022-10-10T09:42:01.553Z,8.75
2022-10-10T09:44:32.342Z,10.10
2022-10-10T09:46:59.875Z,9.27
2022-10-10T09:49:27.337Z,7.45
2022-10-10T09:51:54.345Z,7.15
2022-10-10T09:54:22.524Z,9.23
2022-10-10T09:56:57.902Z,7.68
2022-10-10T09:59:43.539Z,10.00
2022-10-10T10:02:21.475Z,10.98
2022-10-10T10:04:50.350Z,13.75
2022-10-10T10:07:34.281Z,8.15
2022-10-10T10:10:11.484Z,10.38
2022-10-10T10:12:41.835Z,7.93
2022-10-10T10:15:23.629Z,9.93
2022-10-10T10:18:09.582Z,8.93
2022-10-10T10:20:42.573Z,8.70
2022-10-10T10:23:34.028Z,10.80
2022-10-10T10:26:21.499Z,7.40
2022-10-10T10:28:49.659Z,15.40
2022-10-10T10:31:54.542Z,9.57
2022-10-10T10:34:33.711Z,8.70
2022-10-10T10:37:15.068Z,9.05
2022-10-10T10:40:27.928Z,9.20
2022-10-10T10:43:18.551Z,12.40
2022-10-10T10:46:14.834Z,9.98
2022-10-10T10:49:02.068Z,10.23
2022-10-10T10:51:53.867Z,11.77
2022-10-10T10:54:40.435Z,12.45
2022-10-10T10:57:45.620Z,10.70
2022-10-10T11:01:23.985Z,12.00
2022-10-10T11:05:16.403Z,11.30
2022-10-10T11:06:25.846Z,8.98
2022-10-10T11:11:42.218Z,11.10
2022-10-10T11:14:46.633Z,9.45
2022-10-10T11:17:40.388Z,11.93
2022-10-10T11:20:16.893Z,13.85
2022-10-10T11:22:53.762Z,13.23
2022-10-10T11:25:49.620Z,13.05
2022-10-10T11:28:47.163Z,11.68
2022-10-10T11:31:28.571Z,16.13
2022-10-10T11:34:08.362Z,10.18
2022-10-10T11:36:41.479Z,11.23
2022-10-10T11:39:23.658Z,13.65
2022-10-10T11:42:07.725Z,10.88
2022-10-10T11:44:43.718Z,12.68
2022-10-10T11:47:19.558Z,15.80
2022-10-10T11:50:22.240Z,12.65
2022-10-10T11:52:57.419Z,9.40
2022-10-10T11:55:58.291Z,13.77
2022-10-10T11:58:27.412Z,12.35
2022-10-10T12:01:02.791Z,11.75
2022-10-10T12:03:30.203Z,12.55
2022-10-10T12:06:24.852Z,9.50
2022-10-10T12:09:01.466Z,12.68
2022-10-10T12:11:36.487Z,14.60
2022-10-10T12:14:06.985Z,11.25
2022-10-10T12:16:36.758Z,11.82
2022-10-10T12:19:16.175Z,12.75
2022-10-10T12:22:02.363Z,15.15
2022-10-10T12:24:42.591Z,11.45
2022-10-10T12:27:27.839Z,14.13
2022-10-10T12:29:57.695Z,14.40
2022-10-10T12:32:41.144Z,14.95
2022-10-10T12:35:31.188Z,15.00
2022-10-10T12:38:22.611Z,11.25
2022-10-10T12:41:14.141Z,18.08
2022-10-10T12:43:49.559Z,15.55
2022-10-10T12:46:21.760Z,16.30
2022-10-10T12:49:01.772Z,13.57
2022-10-10T12:51:36.387Z,16.63
2022-10-10T12:54:06.312Z,13.05
2022-10-10T12:56:43.801Z,13.57
2022-10-10T12:59:22.006Z,14.48
2022-10-10T13:02:15.416Z,12.48
2022-10-10T13:04:44.437Z,14.68
2022-10-10T13:07:17.688Z,15.60
2022-10-10T13:09:50.363Z,14.30
2022-10-10T13:12:27.154Z,12.18
2022-10-10T13:14:56.141Z,16.23
2022-10-10T13:17:30.226Z,14.50
2022-10-10T13:20:00.616Z,15.05
2022-10-10T13:22:36.627Z,13.13
2022-10-10T13:25:10.483Z,13.43
2022-10-10T13:27:37.930Z,12.25
2022-10-10T13:30:07.053Z,15.65
2022-10-10T13:32:36.003Z,15.15
2022-10-10T13:35:13.499Z,12.68
2022-10-10T13:37:43.876Z,14.85
2022-10-10T13:40:15.965Z,11.60
2022-10-10T13:42:43.901Z,10.32
2022-10-10T13:45:31.826Z,11.30
2022-10-10T13:48:00.410Z,12.20
2022-10-10T13:50:42.717Z,11.23
2022-10-10T13:53:28.184Z,10.85
2022-10-10T13:55:58.537Z,12.93
2022-10-10T13:58:32.360Z,13.02
2022-10-10T14:01:05.686Z,13.50
2022-10-10T14:06:03.650Z,11.80
2022-10-10T14:08:34.100Z,14.63
2022-10-10T14:11:07.928Z,13.02
2022-10-10T14:13:38.891Z,10.85
2022-10-10T14:16:18.961Z,15.93
2022-10-10T14:18:46.869Z,13.63
2022-10-10T14:21:16.501Z,14.00
2022-10-10T14:23:43.466Z,14.63
2022-10-10T14:26:15.171Z,12.05
2022-10-10T14:28:43.741Z,11.23
2022-10-10T14:31:13.523Z,11.95
2022-10-10T14:33:40.744Z,11.43
2022-10-10T14:36:08.219Z,11.13
2022-10-10T14:38:38.024Z,12.48
2022-10-10T14:41:05.946Z,13.07
2022-10-10T14:43:34.075Z,12.55
2022-10-10T14:46:01.434Z,13.23
2022-10-10T14:48:28.959Z,13.50
2022-10-10T14:50:56.317Z,10.48
2022-10-10T14:53:26.665Z,13.32
2022-10-10T14:55:56.266Z,11.40
2022-10-10T14:58:23.867Z,12.93
2022-10-10T15:00:51.796Z,13.45
2022-10-10T15:03:21.820Z,13.07
2022-10-10T15:05:49.777Z,13.20
2022-10-10T15:08:20.157Z,11.52
2022-10-10T15:10:47.670Z,12.23
2022-10-10T15:13:20.044Z,13.52
2022-10-10T15:15:47.470Z,12.50
2022-10-10T15:18:39.640Z,13.73
2022-10-10T15:21:10.547Z,15.93
2022-10-10T15:23:40.782Z,13.93
2022-10-10T15:26:08.433Z,13.02
2022-10-10T15:28:35.710Z,12.88
2022-10-10T15:31:03.489Z,13.10
2022-10-10T15:33:30.901Z,13.50
2022-10-10T15:36:10.443Z,12.75
2022-10-10T15:38:39.011Z,12.32
2022-10-10T15:41:10.038Z,14.65
2022-10-10T15:43:51.127Z,17.50
2022-10-10T15:46:28.370Z,12.70
2022-10-10T15:49:01.121Z,12.13
2022-10-10T15:51:29.402Z,11.32
2022-10-10T15:53:59.687Z,18.27
2022-10-10T15:56:27.209Z,15.43
2022-10-10T15:58:58.622Z,14.00
2022-10-10T16:01:26.684Z,13.75
2022-10-10T16:03:54.430Z,14.55
2022-10-10T16:06:25.412Z,13.40
2022-10-10T16:09:10.009Z,11.85
2022-10-10T16:11:42.851Z,14.93
2022-10-10T16:14:10.905Z,13.65
2022-10-10T16:16:38.161Z,12.73
2022-10-10T16:19:05.812Z,13.75
2022-10-10T16:21:32.986Z,14.73
2022-10-10T16:24:00.317Z,15.25
2022-10-10T16:26:30.567Z,15.55
2022-10-10T16:28:58.094Z,14.93
2022-10-10T16:31:25.226Z,14.95
2022-10-10T16:33:56.269Z,13.98
2022-10-10T16:36:25.949Z,16.80
2022-10-10T16:38:54.838Z,12.48
2022-10-10T16:41:46.463Z,15.35
2022-10-10T16:44:12.825Z,14.40
2022-10-10T16:46:39.929Z,18.38
2022-10-10T16:49:07.212Z,16.63
2022-10-10T16:51:36.991Z,14.75
2022-10-10T16:54:09.510Z,18.45
2022-10-10T16:56:36.971Z,15.55
2022-10-10T16:59:06.693Z,15.75
2022-10-10T17:01:34.537Z,14.45
2022-10-10T17:04:04.815Z,17.60
2022-10-10T17:06:35.180Z,12.38
2022-10-10T17:09:07.577Z,18.75
2022-10-10T17:11:37.302Z,15.40
2022-10-10T17:14:05.157Z,16.15
2022-10-10T17:19:20.214Z,14.77
2022-10-10T17:21:47.789Z,14.68
2022-10-10T17:24:15.590Z,16.27
2022-10-10T17:26:43.051Z,13.93
2022-10-10T17:29:12.609Z,16.27
2022-10-10T17:31:40.351Z,13.27
2022-10-10T17:34:07.945Z,14.55
2022-10-10T17:36:35.135Z,16.92
2022-10-10T17:39:02.236Z,12.75
2022-10-10T17:41:30.069Z,14.75
2022-10-10T17:43:57.224Z,17.58
2022-10-10T17:46:35.167Z,16.38
2022-10-10T17:49:08.309Z,12.85
2022-10-10T17:51:36.704Z,14.23
2022-10-10T17:54:04.699Z,14.07
2022-10-10T17:56:32.901Z,14.00
2022-10-10T17:58:59.976Z,15.90
2022-10-10T18:01:27.736Z,14.23
2022-10-10T18:03:55.169Z,15.63
2022-10-10T18:06:25.428Z,15.13
2022-10-10T18:08:56.895Z,17.25
2022-10-10T18:11:31.755Z,14.93
2022-10-10T18:14:04.333Z,14.15
2022-10-10T18:16:36.914Z,13.35
2022-10-10T18:19:06.614Z,15.35
2022-10-10T18:21:35.037Z,15.85
2022-10-10T18:24:04.811Z,17.23
2022-10-10T18:26:32.385Z,16.13
2022-10-10T18:29:00.074Z,14.15
2022-10-10T18:31:32.220Z,16.08
2022-10-10T18:34:05.615Z,15.00
2022-10-10T18:36:36.170Z,13.52
2022-10-10T18:39:07.980Z,15.32
2022-10-10T18:41:35.560Z,13.95
2022-10-10T18:44:05.744Z,14.55
2022-10-10T18:46:33.986Z,23.05
2022-10-10T18:49:07.496Z,15.75
2022-10-10T18:51:39.137Z,15.23
2022-10-10T18:54:09.594Z,16.30
2022-10-10T18:56:39.364Z,13.65
2022-10-10T18:59:10.984Z,14.27
2022-10-10T19:01:39.075Z,14.18
2022-10-10T19:04:08.870Z,14.88
2022-10-10T19:06:39.969Z,14.27
2022-10-10T19:09:10.040Z,16.23
2022-10-10T19:11:39.043Z,15.35
2022-10-10T19:14:09.025Z,18.30
2022-10-10T19:16:37.157Z,21.02
2022-10-10T19:19:04.667Z,18.05
2022-10-10T19:21:37.480Z,15.68
2022-10-10T19:24:07.658Z,16.10
2022-10-10T19:26:35.042Z,20.08
2022-10-10T19:29:08.753Z,17.15
2022-10-10T19:31:40.136Z,15.27
2022-10-10T19:34:07.678Z,14.02
2022-10-10T19:36:38.446Z,17.55
2022-10-10T19:39:10.148Z,19.00
2022-10-10T19:41:37.175Z,18.45
2022-10-10T19:44:04.491Z,17.17
2022-10-10T19:46:36.637Z,19.27
2022-10-10T19:49:06.383Z,19.73
2022-10-10T19:51:34.135Z,17.02
2022-10-10T19:54:01.324Z,27.83
2022-10-10T19:56:28.447Z,13.88
2022-10-10T19:58:58.799Z,18.10
2022-10-10T20:01:30.340Z,15.77
2022-10-10T20:03:59.058Z,14.05
2022-10-10T20:06:26.564Z,15.52
2022-10-10T20:08:54.091Z,14.95
2022-10-10T20:11:21.967Z,14.60
2022-10-10T20:13:52.346Z,15.40
2022-10-10T20:16:20.114Z,13.85
2022-10-10T20:18:47.621Z,17.55
2022-10-10T20:21:18.404Z,11.75
2022-10-10T20:23:46.701Z,15.43
2022-10-10T20:26:19.565Z,17.13
2022-10-10T20:28:47.918Z,14.37
2022-10-10T20:31:25.644Z,17.35
2022-10-10T20:33:54.551Z,17.55
2022-10-10T20:36:23.213Z,17.25
2022-10-10T20:38:54.953Z,15.73
2022-10-10T20:41:24.436Z,15.20
2022-10-10T20:43:56.313Z,18.25
2022-10-10T20:46:24.249Z,15.45
2022-10-10T20:48:54.075Z,18.75
2022-10-10T20:51:21.136Z,18.90
2022-10-10T20:53:56.750Z,17.58
2022-10-10T20:56:24.645Z,14.45
2022-10-10T20:58:54.513Z,16.23
2022-10-10T21:01:23.956Z,14.20
2022-10-10T21:03:51.175Z,16.27
2022-10-10T21:06:26.811Z,16.65
2022-10-10T21:08:54.826Z,15.10
2022-10-10T21:11:25.881Z,20.33
2022-10-10T21:13:55.230Z,13.63
2022-10-10T21:16:29.994Z,14.63
2022-10-10T21:19:00.037Z,13.57
2022-10-10T21:21:28.812Z,15.93
2022-10-10T21:23:57.051Z,16.42
2022-10-10T21:26:28.373Z,14.57
2022-10-10T21:28:56.350Z,16.25
2022-10-10T21:31:24.566Z,16.48
2022-10-10T21:33:57.573Z,14.93
2022-10-10T21:36:26.098Z,16.00
2022-10-10T21:38:54.313Z,18.20
2022-10-10T21:41:24.616Z,18.48
2022-10-10T21:43:54.778Z,14.90
2022-10-10T21:46:25.021Z,15.43
2022-10-10T21:48:53.405Z,15.18
2022-10-10T21:51:21.238Z,13.95
2022-10-10T21:53:54.553Z,18.60
2022-10-10T21:56:22.198Z,14.48
2022-10-10T21:58:51.656Z,18.23
2022-10-10T22:01:24.080Z,16.58
2022-10-10T22:03:54.269Z,17.33
2022-10-10T22:06:24.951Z,15.63
2022-10-10T22:08:53.629Z,16.92
2022-10-10T22:11:23.256Z,14.77
2022-10-10T22:13:50.907Z,15.90
2022-10-10T22:16:21.320Z,17.63
2022-10-10T22:18:52.491Z,18.63
2022-10-10T22:21:20.366Z,18.10
2022-10-10T22:23:47.518Z,14.65
2022-10-10T22:26:16.929Z,16.92
2022-10-10T22:28:45.492Z,17.67
2022-10-10T22:31:14.947Z,15.30
2022-10-10T22:33:42.788Z,18.63
2022-10-10T22:36:10.362Z,15.50
2022-10-10T22:38:42.775Z,18.67
2022-10-10T22:41:11.908Z,15.98
2022-10-10T22:43:39.270Z,21.00
2022-10-10T22:46:07.143Z,21.80
2022-10-10T22:48:37.707Z,18.48
2022-10-10T22:51:08.458Z,16.80
2022-10-10T22:53:39.366Z,16.60
2022-10-10T22:56:07.653Z,15.13
2022-10-10T22:58:36.833Z,16.95
2022-10-10T23:01:11.212Z,18.00
2022-10-10T23:03:41.334Z,17.50
2022-10-10T23:06:09.263Z,15.70
2022-10-10T23:08:38.985Z,17.25
2022-10-10T23:11:08.272Z,16.75
2022-10-10T23:13:35.650Z,17.52
2022-10-10T23:16:03.303Z,15.52
2022-10-10T23:18:31.063Z,18.85
2022-10-10T23:20:58.656Z,15.27
2022-10-10T23:23:26.682Z,15.52
2022-10-10T23:25:56.018Z,17.83
2022-10-10T23:28:23.500Z,15.23
2022-10-10T23:30:50.812Z,17.23
2022-10-10T23:33:20.115Z,20.92
2022-10-10T23:35:59.902Z,16.75
2022-10-10T23:38:30.378Z,19.38
2022-10-10T23:40:57.764Z,16.50
2022-10-10T23:43:27.036Z,16.88
2022-10-10T23:45:54.462Z,18.15
2022-10-10T23:48:24.179Z,17.55
2022-10-10T23:50:53.884Z,16.42
2022-10-10T23:53:21.210Z,25.35
2022-10-10T23:55:50.830Z,16.15
2022-10-10T23:58:18.044Z,15.65
